Time;durP1;ratioP1;P1;durP2;ratioP2;P2;SDS_P1;SDS_P2;PMS_P1;PMS_P2;Temp;Humidity;BMP_temperature;BMP_pressure;BME280_temperature;BME280_humidity;BME280_pressure;Samples;Min_cycle;Max_cycle;Signal;HPM_P1;HPM_P2
2022/11/22 00:02:13;;;;;;;3.33;2.25;;;7.60;90.60;;;;;;5071501;28;20028;-31
2022/11/22 00:04:38;;;;;;;4.57;2.17;;;7.60;90.80;;;;;;5071176;28;20082;-31
2022/11/22 00:07:04;;;;;;;4.90;2.45;;;7.70;91.00;;;;;;5071842;28;20303;-32
2022/11/22 00:09:29;;;;;;;6.78;2.75;;;7.70;91.20;;;;;;5074255;28;20090;-32
2022/11/22 00:11:55;;;;;;;5.72;2.60;;;7.70;91.40;;;;;;5074104;28;20121;-31
2022/11/22 00:14:21;;;;;;;6.80;2.67;;;7.70;91.50;;;;;;5074025;28;20024;-32
2022/11/22 00:16:47;;;;;;;5.30;2.42;;;7.70;91.60;;;;;;5073892;28;20082;-32
2022/11/22 00:19:12;;;;;;;6.05;2.88;;;7.70;91.60;;;;;;5073894;28;20016;-32
2022/11/22 00:21:38;;;;;;;4.72;2.60;;;7.70;91.70;;;;;;5073901;28;20028;-31
2022/11/22 00:24:04;;;;;;;6.15;2.75;;;7.80;91.70;;;;;;5073944;28;20020;-32
2022/11/22 00:26:29;;;;;;;5.15;2.20;;;7.80;91.70;;;;;;5073858;28;20468;-32
2022/11/22 00:28:55;;;;;;;7.00;2.67;;;7.80;91.80;;;;;;5073789;28;20024;-31
2022/11/22 00:31:21;;;;;;;6.60;2.60;;;7.80;92.00;;;;;;5073710;28;20099;-32
2022/11/22 00:33:46;;;;;;;5.85;2.85;;;7.80;92.10;;;;;;5073741;28;20012;-32
2022/11/22 00:36:12;;;;;;;5.38;2.55;;;7.80;92.40;;;;;;5073627;28;20027;-31
2022/11/22 00:38:37;;;;;;;5.28;3.03;;;7.80;92.60;;;;;;5073925;28;20029;-31
2022/11/22 00:41:03;;;;;;;5.45;3.13;;;7.80;92.70;;;;;;5073603;28;20032;-31
2022/11/22 00:43:28;;;;;;;6.97;2.63;;;7.80;92.70;;;;;;5073449;28;20036;-31
2022/11/22 00:45:54;;;;;;;8.25;3.72;;;7.80;92.70;;;;;;5073525;28;20032;-31
2022/11/22 00:48:20;;;;;;;6.78;3.60;;;7.90;92.70;;;;;;5073344;28;20029;-32
2022/11/22 00:50:48;;;;;;;4.85;3.03;;;7.90;92.80;;;;;;5073422;28;20024;-31
2022/11/22 00:53:13;;;;;;;7.75;3.92;;;7.90;92.80;;;;;;5073345;28;20020;-32
2022/11/22 00:55:39;;;;;;;8.18;4.20;;;7.90;92.70;;;;;;5073326;28;20383;-34
2022/11/22 00:58:04;;;;;;;8.50;3.58;;;7.90;92.60;;;;;;5073440;28;20025;-32
2022/11/22 01:00:30;;;;;;;6.20;3.42;;;8.00;92.60;;;;;;5073574;28;20609;-32
2022/11/22 01:02:56;;;;;;;5.30;3.10;;;8.00;92.50;;;;;;5073327;28;20020;-34
2022/11/22 01:05:21;;;;;;;5.72;3.20;;;8.00;92.40;;;;;;5036221;28;1062898;-32
2022/11/22 01:07:48;;;;;;;6.25;3.13;;;8.00;92.40;;;;;;5074711;28;20695;-31
2022/11/22 01:10:13;;;;;;;7.93;3.78;;;8.00;92.30;;;;;;5074237;28;20031;-31
2022/11/22 01:12:39;;;;;;;9.98;3.40;;;8.00;92.20;;;;;;5056186;28;20037;-32
2022/11/22 01:15:05;;;;;;;7.15;3.42;;;8.10;92.20;;;;;;5074183;28;20024;-31
2022/11/22 01:17:30;;;;;;;5.18;3.28;;;8.00;92.10;;;;;;5073590;28;20028;-32
2022/11/22 01:19:56;;;;;;;8.60;3.50;;;8.10;92.00;;;;;;5074090;28;20148;-31
2022/11/22 01:22:24;;;;;;;8.55;3.63;;;8.10;92.00;;;;;;5074017;28;20043;-32
2022/11/22 01:24:50;;;;;;;7.15;3.40;;;8.10;91.90;;;;;;5074002;28;20498;-32
2022/11/22 01:27:15;;;;;;;6.35;3.20;;;8.10;91.80;;;;;;5073820;28;20040;-32
2022/11/22 01:29:41;;;;;;;8.82;3.78;;;8.10;91.80;;;;;;5055946;28;20434;-32
2022/11/22 01:32:06;;;;;;;6.97;3.60;;;8.20;91.70;;;;;;5073905;28;20056;-31
2022/11/22 01:34:32;;;;;;;10.40;3.88;;;8.20;91.70;;;;;;5073850;28;20059;-32
2022/11/22 01:36:57;;;;;;;5.28;3.20;;;8.20;91.60;;;;;;5074160;28;20048;-32
2022/11/22 01:39:23;;;;;;;6.88;3.50;;;8.30;91.60;;;;;;5073722;28;20032;-32
2022/11/22 01:41:49;;;;;;;6.82;3.63;;;8.30;91.50;;;;;;5073637;28;20032;-34
2022/11/22 01:44:19;;;;;;;5.90;3.40;;;8.30;91.40;;;;;;5073492;28;20039;-31
2022/11/22 01:46:47;;;;;;;6.03;3.15;;;8.30;91.40;;;;;;5055677;28;20119;-31
2022/11/22 01:49:36;;;;;;;6.30;3.22;;;8.30;91.30;;;;;;5073558;28;20064;-32
2022/11/22 01:52:09;;;;;;;5.40;3.17;;;8.30;91.30;;;;;;5073538;28;20519;-33
2022/11/22 01:54:40;;;;;;;8.20;3.58;;;8.30;91.30;;;;;;5073637;28;20047;-32
2022/11/22 01:57:10;;;;;;;5.63;2.92;;;8.30;91.20;;;;;;5073424;28;20099;-32
2022/11/22 01:59:40;;;;;;;7.35;3.55;;;8.30;91.20;;;;;;5073225;28;20033;-32
2022/11/22 02:02:06;;;;;;;7.50;3.35;;;8.40;91.20;;;;;;5073173;28;20051;-32
2022/11/22 02:04:33;;;;;;;6.55;3.42;;;8.40;91.10;;;;;;5073012;28;20040;-32
2022/11/22 02:07:07;;;;;;;6.57;3.30;;;8.40;91.10;;;;;;5073081;28;20091;-32
2022/11/22 02:09:34;;;;;;;7.00;3.13;;;8.40;91.00;;;;;;5073031;28;20603;-32
2022/11/22 02:12:02;;;;;;;9.55;3.30;;;8.50;91.00;;;;;;5072973;28;20032;-32
2022/11/22 02:14:29;;;;;;;7.18;3.10;;;8.40;90.90;;;;;;5073228;28;20029;-32
2022/11/22 02:16:55;;;;;;;6.63;3.10;;;8.40;90.90;;;;;;5072980;28;20044;-32
2022/11/22 02:19:46;;;;;;;8.15;3.28;;;8.40;91.20;;;;;;5072937;28;20036;-32
2022/11/22 02:22:40;;;;;;;3.65;2.67;;;8.40;90.90;;;;;;5072347;28;20188;-33
2022/11/22 02:25:28;;;;;;;6.80;2.97;;;8.40;90.90;;;;;;5072903;28;20077;-32
2022/11/22 02:27:54;;;;;;;4.53;2.83;;;8.40;90.80;;;;;;5072724;28;20052;-32
2022/11/22 02:30:20;;;;;;;6.20;2.88;;;8.40;90.80;;;;;;5071813;28;20040;-32
2022/11/22 02:32:45;;;;;;;4.95;2.95;;;8.40;90.80;;;;;;5072636;28;20024;-32
2022/11/22 02:35:22;;;;;;;5.13;2.97;;;8.40;90.80;;;;;;5072533;28;20103;-41
2022/11/22 02:37:50;;;;;;;5.03;2.90;;;8.40;90.80;;;;;;5072580;28;20017;-32
2022/11/22 02:40:16;;;;;;;7.05;3.10;;;8.40;90.80;;;;;;5054694;28;20484;-31
2022/11/22 02:42:51;;;;;;;6.70;3.13;;;8.40;90.80;;;;;;5072553;28;20029;-31
2022/11/22 02:45:17;;;;;;;4.68;2.65;;;8.40;90.70;;;;;;5072448;28;20016;-31
2022/11/22 02:47:42;;;;;;;5.53;2.60;;;8.40;90.70;;;;;;5072402;28;20400;-31
2022/11/22 02:50:08;;;;;;;5.07;2.80;;;8.40;90.70;;;;;;5054258;28;20568;-31
2022/11/22 02:52:34;;;;;;;7.03;3.00;;;8.40;90.70;;;;;;5072355;28;20028;-32
2022/11/22 02:54:59;;;;;;;5.60;2.55;;;8.40;90.70;;;;;;5054143;28;20102;-32
2022/11/22 02:57:25;;;;;;;8.70;3.03;;;8.40;90.60;;;;;;5054179;28;20021;-31
2022/11/22 02:59:51;;;;;;;4.20;2.53;;;8.40;90.60;;;;;;5072101;28;20040;-31
2022/11/22 03:02:16;;;;;;;6.32;2.65;;;8.40;90.60;;;;;;5071985;28;20090;-31
2022/11/22 03:04:42;;;;;;;4.03;2.47;;;8.40;90.60;;;;;;5071717;28;20036;-36
2022/11/22 03:07:07;;;;;;;5.72;2.90;;;8.50;90.60;;;;;;5071808;28;20083;-34
2022/11/22 03:09:33;;;;;;;7.45;2.58;;;8.50;90.60;;;;;;5072061;28;20328;-31
2022/11/22 03:11:59;;;;;;;3.80;2.38;;;8.50;90.50;;;;;;5072104;28;20035;-31
2022/11/22 03:14:25;;;;;;;5.75;2.05;;;8.50;90.50;;;;;;5071876;28;20473;-33
2022/11/22 03:16:51;;;;;;;7.97;2.35;;;8.50;90.50;;;;;;5071880;28;20028;-31
2022/11/22 03:19:16;;;;;;;7.20;2.30;;;8.50;90.50;;;;;;5072097;28;20419;-31
2022/11/22 03:21:42;;;;;;;7.38;2.10;;;8.50;90.50;;;;;;5071943;28;20039;-34
2022/11/22 03:24:09;;;;;;;5.32;2.15;;;8.50;90.40;;;;;;5071870;28;20141;-32
2022/11/22 03:26:35;;;;;;;5.22;2.40;;;8.50;90.40;;;;;;5071791;28;20066;-37
2022/11/22 03:29:01;;;;;;;7.05;1.77;;;8.50;90.40;;;;;;5071618;28;20064;-35
2022/11/22 03:31:26;;;;;;;8.15;1.88;;;8.50;90.40;;;;;;5071595;28;20025;-32
2022/11/22 03:33:52;;;;;;;6.07;2.00;;;8.50;90.30;;;;;;5071704;28;20103;-34
2022/11/22 03:36:18;;;;;;;5.40;2.03;;;8.50;90.30;;;;;;5071700;28;20035;-34
2022/11/22 03:38:43;;;;;;;6.90;1.98;;;8.50;90.30;;;;;;5071714;28;20438;-42
2022/11/22 03:41:09;;;;;;;6.57;1.90;;;8.50;90.30;;;;;;5071482;28;20094;-32
2022/11/22 03:43:35;;;;;;;7.03;2.10;;;8.40;90.30;;;;;;5071734;28;20039;-37
2022/11/22 03:46:00;;;;;;;8.20;2.20;;;8.40;90.30;;;;;;5071605;28;20490;-37
2022/11/22 03:48:26;;;;;;;7.47;2.25;;;8.40;90.30;;;;;;5071429;28;20033;-32
2022/11/22 03:50:51;;;;;;;6.68;2.00;;;8.40;90.20;;;;;;5071647;28;20020;-43
2022/11/22 03:53:17;;;;;;;6.10;1.85;;;8.30;90.20;;;;;;5071563;28;20025;-31
2022/11/22 03:55:43;;;;;;;8.60;2.35;;;8.30;90.20;;;;;;5071454;28;20433;-34
2022/11/22 03:58:08;;;;;;;9.23;1.83;;;8.30;90.20;;;;;;5071385;28;20097;-38
2022/11/22 04:00:34;;;;;;;7.82;1.80;;;8.30;90.20;;;;;;5071281;28;20475;-36
2022/11/22 04:03:00;;;;;;;7.35;1.95;;;8.30;90.20;;;;;;5071826;28;20044;-35
2022/11/22 04:05:26;;;;;;;6.15;1.83;;;8.20;90.20;;;;;;5071000;28;20044;-35
2022/11/22 04:07:54;;;;;;;6.28;1.50;;;8.20;90.20;;;;;;5071327;28;20032;-35
2022/11/22 04:10:23;;;;;;;7.43;1.88;;;8.20;90.20;;;;;;5071291;28;20388;-38
2022/11/22 04:12:49;;;;;;;6.00;1.70;;;8.10;90.20;;;;;;5071672;28;20024;-35
2022/11/22 04:15:15;;;;;;;7.88;1.70;;;8.10;90.20;;;;;;5071207;28;20029;-36
2022/11/22 04:17:43;;;;;;;8.35;2.20;;;8.10;90.20;;;;;;5071207;28;20027;-32
2022/11/22 04:23:07;;;;;;;;;;;8.00;90.10;;;;;;5071595;28;20070;-36
2022/11/22 04:25:35;;;;;;;7.50;1.50;;;8.00;90.10;;;;;;5071075;28;19915;-34
2022/11/22 04:28:01;;;;;;;5.05;1.58;;;7.90;90.20;;;;;;5070899;28;20043;-32
2022/11/22 04:33:13;;;;;;;10.00;1.95;;;7.80;90.20;;;;;;5071071;28;20173;-33
2022/11/22 04:35:39;;;;;;;5.40;1.60;;;7.80;90.20;;;;;;5070773;28;20036;-33
2022/11/22 04:38:05;;;;;;;6.35;1.58;;;7.80;90.20;;;;;;5071010;28;20395;-32
2022/11/22 04:40:32;;;;;;;8.73;1.98;;;7.70;90.10;;;;;;5070760;28;20040;-33
2022/11/22 04:45:42;;;;;;;6.78;1.70;;;7.70;90.20;;;;;;5070777;28;20048;-34
2022/11/22 04:48:09;;;;;;;7.57;1.52;;;7.70;90.20;;;;;;5070850;28;20029;-31
2022/11/22 04:53:19;;;;;;;4.65;1.58;;;7.60;90.20;;;;;;5072591;28;20039;-32
2022/11/22 04:55:46;;;;;;;7.45;2.05;;;7.60;90.20;;;;;;5074475;28;20391;-32
2022/11/22 04:58:12;;;;;;;6.65;1.52;;;7.60;90.20;;;;;;5074392;28;20387;-32
2022/11/22 05:00:38;;;;;;;7.68;1.50;;;7.50;90.20;;;;;;5074237;28;20119;-32
2022/11/22 05:03:05;;;;;;;7.55;1.90;;;7.50;90.20;;;;;;5074334;28;20032;-32
2022/11/22 05:05:35;;;;;;;6.65;1.90;;;7.50;90.20;;;;;;5073695;28;20060;-32
2022/11/22 05:08:00;;;;;;;5.00;1.65;;;7.40;90.20;;;;;;5074126;28;20031;-32
2022/11/22 05:10:26;;;;;;;5.32;1.98;;;7.40;90.20;;;;;;5074014;28;20032;-35
2022/11/22 05:12:52;;;;;;;8.95;1.58;;;7.40;90.20;;;;;;5074182;28;20488;-32
2022/11/22 05:15:18;;;;;;;7.35;1.90;;;7.40;90.20;;;;;;5074111;28;20104;-32
2022/11/22 05:17:43;;;;;;;5.63;1.50;;;7.40;90.20;;;;;;5074111;28;20434;-32
2022/11/22 05:20:09;;;;;;;6.28;1.50;;;7.40;90.20;;;;;;5073942;28;20036;-32
2022/11/22 05:25:19;;;;;;;6.00;1.77;;;7.40;90.20;;;;;;5073788;28;20510;-31
2022/11/22 05:27:45;;;;;;;6.53;1.73;;;7.40;90.20;;;;;;5074233;28;20048;-31
2022/11/22 05:30:11;;;;;;;5.13;1.30;;;7.40;90.10;;;;;;5073910;28;20479;-32
2022/11/22 05:32:36;;;;;;;7.93;1.58;;;7.40;90.10;;;;;;5073806;28;20361;-36
2022/11/22 05:35:02;;;;;;;8.18;2.47;;;7.40;90.10;;;;;;5073806;28;20419;-32
2022/11/22 05:37:28;;;;;;;8.38;1.75;;;7.40;90.00;;;;;;5073714;28;20039;-32
2022/11/22 05:39:54;;;;;;;6.45;1.88;;;7.30;90.10;;;;;;5073534;28;20384;-32
2022/11/22 05:42:20;;;;;;;10.73;2.03;;;7.30;90.10;;;;;;5073493;28;20038;-32
2022/11/22 05:44:45;;;;;;;6.05;1.63;;;7.20;90.00;;;;;;5073709;28;20083;-32
2022/11/22 05:47:11;;;;;;;7.05;1.80;;;7.20;90.00;;;;;;5073616;28;20029;-32
2022/11/22 05:49:37;;;;;;;6.13;1.60;;;7.20;90.00;;;;;;5073519;28;20051;-33
2022/11/22 05:52:03;;;;;;;4.53;1.48;;;7.30;90.10;;;;;;5073539;28;20025;-33
2022/11/22 05:54:29;;;;;;;7.15;1.90;;;7.20;90.00;;;;;;5073396;28;20025;-32
2022/11/22 05:56:55;;;;;;;6.25;1.95;;;7.30;90.00;;;;;;5073377;28;20032;-33
2022/11/22 05:59:20;;;;;;;5.55;1.70;;;7.20;90.00;;;;;;5073096;28;20028;-33
2022/11/22 06:01:46;;;;;;;9.00;1.70;;;7.20;89.90;;;;;;5073333;28;20261;-32
2022/11/22 06:04:12;;;;;;;7.43;2.17;;;7.20;89.90;;;;;;5071845;28;20027;-33
2022/11/22 06:06:37;;;;;;;5.57;1.52;;;7.20;90.00;;;;;;5073037;28;20048;-32
2022/11/22 06:09:03;;;;;;;8.23;1.67;;;7.20;89.90;;;;;;5073191;28;20082;-33
2022/11/22 06:11:29;;;;;;;6.63;1.63;;;7.10;89.90;;;;;;5073061;28;20025;-32
2022/11/22 06:13:57;;;;;;;7.88;1.80;;;7.10;90.00;;;;;;5073407;28;20064;-33
2022/11/22 06:16:24;;;;;;;8.45;1.50;;;7.10;89.90;;;;;;5072966;28;20029;-34
2022/11/22 06:18:50;;;;;;;6.88;1.80;;;7.10;90.00;;;;;;5073027;28;20045;-32
2022/11/22 06:21:18;;;;;;;8.30;2.85;;;7.00;89.90;;;;;;5073102;28;20273;-32
2022/11/22 06:23:44;;;;;;;5.43;1.85;;;7.10;90.00;;;;;;5073021;28;20063;-34
2022/11/22 06:26:12;;;;;;;4.32;1.40;;;7.00;89.90;;;;;;5072756;28;20086;-32
2022/11/22 06:28:38;;;;;;;5.68;1.52;;;7.00;89.90;;;;;;5072854;28;20162;-32
2022/11/22 06:31:15;;;;;;;8.90;1.88;;;7.00;90.00;;;;;;5072717;28;20040;-32
2022/11/22 06:33:41;;;;;;;6.18;1.73;;;7.00;90.00;;;;;;5072642;28;20036;-32
2022/11/22 06:36:15;;;;;;;6.80;1.58;;;7.00;89.90;;;;;;5072713;28;20029;-31
2022/11/22 06:38:42;;;;;;;4.50;1.52;;;7.00;89.80;;;;;;5072433;28;20115;-32
2022/11/22 06:41:11;;;;;;;4.20;1.30;;;7.00;89.90;;;;;;5072523;28;20060;-31
2022/11/22 06:43:38;;;;;;;5.32;1.60;;;7.00;89.90;;;;;;5072475;28;20024;-32
2022/11/22 06:46:05;;;;;;;7.20;1.85;;;7.00;89.80;;;;;;5054431;28;20479;-32
2022/11/22 06:48:33;;;;;;;7.22;1.50;;;6.90;89.90;;;;;;5072254;28;20025;-32
2022/11/22 06:51:00;;;;;;;5.63;1.75;;;6.90;90.00;;;;;;5072545;28;20411;-32
2022/11/22 06:53:27;;;;;;;4.95;1.65;;;6.90;90.00;;;;;;5072476;28;20021;-39
2022/11/22 06:56:02;;;;;;;5.63;1.58;;;6.80;90.00;;;;;;5072338;28;20069;-32
2022/11/22 06:58:27;;;;;;;7.00;1.80;;;6.80;90.00;;;;;;5072338;28;20488;-32
2022/11/22 07:01:00;;;;;;;5.03;1.58;;;6.80;90.50;;;;;;5072219;28;20039;-33
2022/11/22 07:03:25;;;;;;;5.57;1.27;;;6.80;90.60;;;;;;5072226;28;20048;-34
2022/11/22 07:05:51;;;;;;;7.93;2.13;;;6.70;90.50;;;;;;5071731;28;20052;-32
2022/11/22 07:08:17;;;;;;;6.07;2.03;;;6.70;90.50;;;;;;5071844;28;20051;-32
2022/11/22 07:10:42;;;;;;;7.22;1.60;;;6.70;90.40;;;;;;5071784;28;20031;-33
2022/11/22 07:13:08;;;;;;;9.63;1.80;;;6.70;90.40;;;;;;5071969;28;20391;-32
2022/11/22 07:15:34;;;;;;;8.68;1.83;;;6.60;90.30;;;;;;5071582;28;20092;-34
2022/11/22 07:17:59;;;;;;;6.18;1.92;;;6.60;90.40;;;;;;5071943;28;20042;-32
2022/11/22 07:20:25;;;;;;;5.43;1.85;;;6.60;90.40;;;;;;5071446;28;20388;-32
2022/11/22 07:22:50;;;;;;;8.13;2.40;;;6.60;90.40;;;;;;5071496;28;20501;-31
2022/11/22 07:25:16;;;;;;;6.97;1.73;;;6.60;90.30;;;;;;5071739;28;20123;-32
2022/11/22 07:27:41;;;;;;;12.02;2.08;;;6.60;90.30;;;;;;5071670;28;20372;-32
2022/11/22 07:30:08;;;;;;;9.95;1.80;;;6.50;90.30;;;;;;5071611;28;20362;-33
2022/11/22 07:32:33;;;;;;;7.57;2.22;;;6.60;90.30;;;;;;5071695;28;20117;-32
2022/11/22 07:34:59;;;;;;;8.30;2.20;;;6.60;90.30;;;;;;5071705;28;20040;-32
2022/11/22 07:37:25;;;;;;;7.10;2.13;;;6.70;90.20;;;;;;5071567;28;20043;-33
2022/11/22 07:39:50;;;;;;;5.15;1.40;;;6.80;90.40;;;;;;5071436;28;20442;-31
2022/11/22 07:42:16;;;;;;;7.85;1.95;;;6.80;90.10;;;;;;5071801;28;20043;-32
2022/11/22 07:44:41;;;;;;;7.32;1.77;;;6.90;90.20;;;;;;5071468;28;20050;-32
2022/11/22 07:47:07;;;;;;;6.13;1.45;;;6.90;90.10;;;;;;5071656;28;20029;-32
2022/11/22 07:49:32;;;;;;;6.03;1.77;;;7.00;90.20;;;;;;5053289;28;20040;-32
2022/11/22 07:51:58;;;;;;;7.75;1.55;;;7.00;90.20;;;;;;5071458;28;20024;-31
2022/11/22 07:54:24;;;;;;;5.28;1.30;;;7.10;90.40;;;;;;5071341;28;20507;-32
2022/11/22 07:56:50;;;;;;;4.38;1.70;;;7.10;90.40;;;;;;5071498;28;20040;-32
2022/11/22 07:59:15;;;;;;;4.75;1.50;;;7.10;90.50;;;;;;5071510;28;20020;-32
2022/11/22 08:01:41;;;;;;;7.50;1.73;;;7.10;90.70;;;;;;5071257;28;20031;-31
2022/11/22 08:04:06;;;;;;;4.80;1.70;;;7.10;90.90;;;;;;5071353;28;20031;-34
2022/11/22 08:06:32;;;;;;;7.22;1.70;;;7.20;91.00;;;;;;5071186;28;20048;-33
2022/11/22 08:08:57;;;;;;;6.70;1.95;;;7.20;91.00;;;;;;5071207;28;20033;-32
2022/11/22 08:11:23;;;;;;;6.00;1.90;;;7.20;90.90;;;;;;5071272;28;20063;-32
2022/11/22 08:13:49;;;;;;;6.10;1.70;;;7.20;90.80;;;;;;5071425;28;20036;-32
2022/11/22 08:16:15;;;;;;;6.93;1.58;;;7.20;90.80;;;;;;5071144;28;20025;-33
2022/11/22 08:18:45;;;;;;;4.32;1.30;;;7.30;91.00;;;;;;5071380;28;20071;-39
2022/11/22 08:21:13;;;;;;;6.13;1.58;;;7.30;91.00;;;;;;5071337;28;20021;-33
2022/11/22 08:23:40;;;;;;;9.55;1.77;;;7.30;91.10;;;;;;5071317;28;20029;-32
2022/11/22 08:26:07;;;;;;;8.20;1.63;;;7.30;91.30;;;;;;5071218;28;20454;-33
2022/11/22 08:28:33;;;;;;;4.68;1.45;;;7.40;91.20;;;;;;5073287;28;20025;-32
2022/11/22 08:31:19;;;;;;;6.88;1.83;;;7.40;91.20;;;;;;5075239;28;20036;-33
2022/11/22 08:33:45;;;;;;;6.55;1.50;;;7.40;91.20;;;;;;5074619;28;20036;-32
2022/11/22 08:36:11;;;;;;;7.80;1.55;;;7.40;91.20;;;;;;5074876;28;20079;-32
2022/11/22 08:38:37;;;;;;;6.85;1.63;;;7.50;91.10;;;;;;5074825;28;20029;-34
2022/11/22 08:41:05;;;;;;;5.20;1.55;;;7.50;91.00;;;;;;5074897;28;20020;-33
2022/11/22 08:43:31;;;;;;;8.10;1.77;;;7.60;91.00;;;;;;5074527;28;20028;-34
2022/11/22 08:45:58;;;;;;;6.35;1.73;;;7.60;90.90;;;;;;5074720;28;20090;-34
2022/11/22 08:48:28;;;;;;;5.00;1.63;;;7.60;90.90;;;;;;5074566;28;20020;-32
2022/11/22 08:50:56;;;;;;;4.80;1.10;;;7.70;91.00;;;;;;5074519;28;20036;-33
2022/11/22 08:53:23;;;;;;;3.28;1.27;;;7.70;91.50;;;;;;5074669;28;20031;-32
2022/11/22 08:55:48;;;;;;;7.22;1.40;;;7.70;91.60;;;;;;5074679;28;20029;-32
2022/11/22 08:58:14;;;;;;;3.72;0.98;;;7.70;91.70;;;;;;5074707;28;20491;-32
2022/11/22 09:00:40;;;;;;;7.07;1.67;;;7.70;91.70;;;;;;5074473;28;20056;-32
2022/11/22 09:03:06;;;;;;;6.70;1.70;;;7.80;92.10;;;;;;5074504;28;20029;-33
2022/11/22 09:05:31;;;;;;;4.55;1.40;;;7.80;91.80;;;;;;5074256;28;20025;-32
2022/11/22 09:07:57;;;;;;;6.00;1.70;;;7.80;91.70;;;;;;5074548;28;20031;-36
2022/11/22 09:10:23;;;;;;;4.10;1.45;;;7.90;91.50;;;;;;5074084;28;20033;-32
2022/11/22 09:12:49;;;;;;;4.47;1.50;;;7.90;91.50;;;;;;5074283;28;20028;-33
2022/11/22 09:15:15;;;;;;;6.43;1.92;;;7.90;91.40;;;;;;5074282;28;20032;-31
2022/11/22 09:17:42;;;;;;;3.28;1.35;;;8.00;91.50;;;;;;5074354;28;20020;-33
2022/11/22 09:20:08;;;;;;;3.80;1.40;;;8.00;91.40;;;;;;5074357;28;20040;-32
2022/11/22 09:22:33;;;;;;;4.18;1.35;;;8.00;91.30;;;;;;5074224;28;20032;-33
2022/11/22 09:25:00;;;;;;;4.35;1.40;;;8.10;91.50;;;;;;5074187;28;20111;-33
2022/11/22 09:27:25;;;;;;;5.85;1.60;;;8.10;91.50;;;;;;5074066;28;20032;-33
2022/11/22 09:29:51;;;;;;;8.13;2.25;;;8.10;91.30;;;;;;5073919;28;20103;-31
2022/11/22 09:32:17;;;;;;;7.55;2.22;;;8.10;91.20;;;;;;5074565;28;20056;-35
2022/11/22 09:34:42;;;;;;;6.60;1.45;;;8.10;91.10;;;;;;5074148;28;20400;-33
2022/11/22 09:37:08;;;;;;;5.85;1.92;;;8.10;91.20;;;;;;5074034;28;20078;-31
2022/11/22 09:39:33;;;;;;;5.00;1.60;;;8.10;91.10;;;;;;5073538;28;20070;-33
2022/11/22 09:42:38;;;;;;;5.80;1.50;;;8.10;91.30;;;;;;5073778;28;20032;-33
2022/11/22 09:45:03;;;;;;;;;;;8.20;91.20;;;;;;5074159;28;20071;-31
2022/11/22 09:48:06;;;;;;;4.20;1.27;;;8.20;91.30;;;;;;5073724;28;19956;-33
2022/11/22 09:50:47;;;;;;;5.87;1.60;;;8.20;91.70;;;;;;5073948;28;20032;-32
2022/11/22 09:53:27;;;;;;;3.70;1.70;;;8.20;92.20;;;;;;5073821;28;20116;-32
2022/11/22 09:55:58;;;;;;;5.80;1.70;;;8.20;92.10;;;;;;5073632;28;20464;-32
2022/11/22 09:58:56;;;;;;;6.95;1.60;;;8.20;92.00;;;;;;5073501;28;20028;-31
2022/11/22 10:01:25;;;;;;;5.80;1.65;;;8.30;92.00;;;;;;5073378;28;20446;-38
2022/11/22 10:04:02;;;;;;;5.13;1.40;;;8.30;92.00;;;;;;5073416;28;20021;-32
2022/11/22 10:06:40;;;;;;;6.65;1.67;;;8.40;92.00;;;;;;5073349;28;20076;-33
2022/11/22 10:09:38;;;;;;;3.35;1.65;;;8.40;92.00;;;;;;5073195;28;20039;-34
2022/11/22 10:12:23;;;;;;;2.65;1.30;;;8.50;92.00;;;;;;5073177;28;20397;-32
2022/11/22 10:15:28;;;;;;;5.85;1.60;;;8.50;92.10;;;;;;5073268;28;20292;-33
2022/11/22 10:17:59;;;;;;;2.28;0.65;;;8.50;91.80;;;;;;5069205;28;20037;-31
2022/11/22 10:20:27;;;;;;;4.55;1.60;;;8.60;91.80;;;;;;5072890;28;20037;-33
2022/11/22 10:22:53;;;;;;;5.65;1.40;;;8.60;92.00;;;;;;5073065;28;20032;-29
2022/11/22 10:25:39;;;;;;;3.97;1.52;;;8.70;91.80;;;;;;5054952;28;20043;-33
2022/11/22 10:28:17;;;;;;;4.22;1.42;;;8.70;91.70;;;;;;5073096;28;20056;-33
2022/11/22 10:30:54;;;;;;;3.53;1.33;;;8.70;91.50;;;;;;5072691;28;20469;-31
2022/11/22 10:33:31;;;;;;;3.20;1.40;;;8.70;91.40;;;;;;5072899;28;20058;-27
2022/11/22 10:35:57;;;;;;;4.25;1.45;;;8.80;91.50;;;;;;5072795;28;20021;-30
2022/11/22 10:38:24;;;;;;;2.63;1.02;;;8.80;91.40;;;;;;5072656;28;20384;-30
2022/11/22 10:41:17;;;;;;;2.58;1.00;;;8.90;91.30;;;;;;5072725;28;20502;-27
2022/11/22 10:43:50;;;;;;;6.10;1.50;;;8.90;91.10;;;;;;5072500;28;20036;-27
2022/11/22 10:46:42;;;;;;;7.30;1.38;;;9.00;91.10;;;;;;5072520;28;20032;-31
2022/11/22 10:49:13;;;;;;;3.33;1.15;;;9.00;91.20;;;;;;5072457;28;20028;-30
2022/11/22 10:52:00;;;;;;;3.20;1.30;;;9.00;91.10;;;;;;5071817;28;20036;-27
2022/11/22 10:54:32;;;;;;;2.58;1.33;;;9.00;90.90;;;;;;5072409;28;20029;-31
2022/11/22 10:57:23;;;;;;;4.57;1.52;;;9.00;90.80;;;;;;5072395;28;20025;-31
2022/11/22 11:00:17;;;;;;;2.08;0.90;;;9.00;90.90;;;;;;5072313;28;20488;-29
2022/11/22 11:03:11;;;;;;;4.57;1.20;;;9.10;91.40;;;;;;5072281;28;20025;-32
2022/11/22 11:06:03;;;;;;;6.05;1.08;;;9.00;91.50;;;;;;5071929;28;20112;-30
2022/11/22 11:08:33;;;;;;;5.47;1.50;;;9.00;91.40;;;;;;5072154;28;20139;-28
2022/11/22 11:11:00;;;;;;;3.13;1.20;;;9.00;91.30;;;;;;5072106;28;20392;-35
2022/11/22 11:13:30;;;;;;;3.72;1.20;;;9.00;91.10;;;;;;5071954;28;20024;-27
2022/11/22 11:15:59;;;;;;;2.95;1.23;;;9.00;91.00;;;;;;5071870;28;20115;-30
2022/11/22 11:18:46;;;;;;;4.60;1.10;;;9.10;90.80;;;;;;5071701;28;20036;-30
2022/11/22 11:21:13;;;;;;;4.10;1.33;;;9.10;90.60;;;;;;5071829;28;20036;-30
2022/11/22 11:23:39;;;;;;;1.27;0.90;;;9.10;90.50;;;;;;5037392;28;20024;-28
2022/11/22 11:26:27;;;;;;;1.70;1.02;;;9.10;90.30;;;;;;5071904;28;20195;-28
2022/11/22 11:29:17;;;;;;;2.20;1.10;;;9.10;90.20;;;;;;5071663;28;20028;-30
2022/11/22 11:32:03;;;;;;;4.70;1.33;;;9.10;90.20;;;;;;5071638;28;20248;-31
2022/11/22 11:34:29;;;;;;;2.92;1.10;;;9.10;90.20;;;;;;5071734;28;20029;-29
2022/11/22 11:36:59;;;;;;;3.10;1.20;;;9.10;90.20;;;;;;5071716;28;20392;-32
2022/11/22 11:39:33;;;;;;;2.45;1.08;;;9.10;90.20;;;;;;5071646;28;20054;-29
2022/11/22 11:41:59;;;;;;;4.47;1.20;;;9.10;90.00;;;;;;5071594;28;20480;-27
2022/11/22 11:44:31;;;;;;;3.03;1.00;;;9.10;90.10;;;;;;5071677;28;20103;-32
2022/11/22 11:46:58;;;;;;;4.85;1.27;;;9.20;90.10;;;;;;5071712;28;20028;-28
2022/11/22 11:49:29;;;;;;;2.75;0.85;;;9.20;90.00;;;;;;5071476;28;20029;-30
2022/11/22 11:51:57;;;;;;;2.00;0.75;;;9.20;89.60;;;;;;5071534;28;20021;-32
2022/11/22 11:54:39;;;;;;;2.08;0.88;;;9.20;89.40;;;;;;5071591;28;20020;-31
2022/11/22 11:57:18;;;;;;;0.85;0.65;;;9.30;89.20;;;;;;5071518;28;20028;-33
2022/11/22 11:59:47;;;;;;;3.58;0.90;;;9.30;88.80;;;;;;5071430;28;20024;-32
2022/11/22 12:02:31;;;;;;;2.35;0.90;;;9.30;88.50;;;;;;5073233;28;20029;-32
2022/11/22 12:04:59;;;;;;;3.70;0.90;;;9.40;88.30;;;;;;5075568;28;20028;-32
2022/11/22 12:07:32;;;;;;;2.70;0.80;;;9.50;88.30;;;;;;5075577;28;20048;-31
2022/11/22 12:09:58;;;;;;;1.80;0.90;;;9.50;88.40;;;;;;5075584;28;20033;-28
2022/11/22 12:12:45;;;;;;;1.95;0.80;;;9.60;88.30;;;;;;5075378;28;20750;-30
2022/11/22 12:15:22;;;;;;;2.08;0.63;;;9.60;88.30;;;;;;5075350;28;20062;-30
2022/11/22 12:18:32;;;;;;;4.18;0.85;;;9.60;89.20;;;;;;5075528;28;20031;-31
2022/11/22 12:20:58;;;;;;;1.40;0.80;;;9.60;89.80;;;;;;5075623;28;20480;-34
2022/11/22 12:23:32;;;;;;;4.05;1.00;;;9.60;90.00;;;;;;5075263;28;20028;-28
2022/11/22 12:25:58;;;;;;;3.08;0.70;;;9.60;89.60;;;;;;5075297;28;20484;-32
2022/11/22 12:28:26;;;;;;;1.13;0.73;;;9.60;89.30;;;;;;5075534;28;20020;-29
2022/11/22 12:30:51;;;;;;;2.65;0.80;;;9.60;89.10;;;;;;5075142;28;20044;-30
2022/11/22 12:33:23;;;;;;;1.70;1.00;;;9.60;88.90;;;;;;5075191;28;20063;-33
2022/11/22 12:35:53;;;;;;;1.20;0.90;;;9.60;88.70;;;;;;5057001;28;20058;-28
2022/11/22 12:38:24;;;;;;;1.50;0.90;;;9.70;88.50;;;;;;5075094;28;20060;-29
2022/11/22 12:40:53;;;;;;;1.92;0.65;;;9.70;88.40;;;;;;5075028;28;20097;-30
2022/11/22 12:43:25;;;;;;;1.17;0.60;;;9.70;88.20;;;;;;5074911;28;20496;-30
2022/11/22 12:46:07;;;;;;;0.77;0.60;;;9.60;88.10;;;;;;5074883;28;20607;-29
2022/11/22 12:48:44;;;;;;;2.03;0.80;;;9.60;88.50;;;;;;5074768;28;20032;-30
2022/11/22 12:51:16;;;;;;;1.60;0.85;;;9.60;89.20;;;;;;5074837;28;20557;-32
2022/11/22 12:53:43;;;;;;;1.33;0.80;;;9.50;89.30;;;;;;5074813;28;20033;-33
2022/11/22 12:56:21;;;;;;;1.65;0.60;;;9.50;89.10;;;;;;5074799;28;20516;-29
2022/11/22 12:59:09;;;;;;;0.85;0.60;;;9.50;89.60;;;;;;5074664;28;20028;-31
2022/11/22 13:01:40;;;;;;;1.65;0.60;;;9.40;89.80;;;;;;5074625;28;20080;-31
2022/11/22 13:04:09;;;;;;;3.67;0.70;;;9.40;89.70;;;;;;5074546;28;20028;-31
2022/11/22 13:06:49;;;;;;;0.98;0.60;;;9.40;89.30;;;;;;5056486;28;20050;-27
2022/11/22 13:09:20;;;;;;;2.22;0.82;;;9.40;88.90;;;;;;5074338;28;20058;-33
2022/11/22 13:11:54;;;;;;;0.90;0.60;;;9.40;88.70;;;;;;5075047;28;20039;-30
2022/11/22 13:14:51;;;;;;;1.00;0.70;;;9.40;88.30;;;;;;5073719;28;20032;-35
2022/11/22 13:17:21;;;;;;;0.50;0.50;;;9.50;88.00;;;;;;5074211;28;20059;-30
2022/11/22 13:20:00;;;;;;;2.22;0.70;;;9.40;88.00;;;;;;5074191;28;20405;-28
2022/11/22 13:22:38;;;;;;;0.55;0.38;;;9.40;88.20;;;;;;5074051;28;20530;-30
2022/11/22 13:25:12;;;;;;;1.02;0.60;;;9.40;88.60;;;;;;5074071;28;20545;-33